sensor_id;sensor_type;location;lat;lon;timestamp;temperature;humidity
8422;DHT22;4248;48.196;10.924;2022-12-11T00:01:58;0.70;69.70
8422;DHT22;4248;48.196;10.924;2022-12-11T00:04:24;0.70;69.90
8422;DHT22;4248;48.196;10.924;2022-12-11T00:06:51;0.70;70.00
8422;DHT22;4248;48.196;10.924;2022-12-11T00:09:17;0.70;68.90
8422;DHT22;4248;48.196;10.924;2022-12-11T00:11:43;0.70;70.00
8422;DHT22;4248;48.196;10.924;2022-12-11T00:14:09;0.70;69.60
8422;DHT22;4248;48.196;10.924;2022-12-11T00:16:34;0.80;69.60
8422;DHT22;4248;48.196;10.924;2022-12-11T00:19:00;0.80;68.70
8422;DHT22;4248;48.196;10.924;2022-12-11T00:21:26;0.80;69.50
8422;DHT22;4248;48.196;10.924;2022-12-11T00:23:51;0.80;69.40
8422;DHT22;4248;48.196;10.924;2022-12-11T00:26:17;0.80;69.30
8422;DHT22;4248;48.196;10.924;2022-12-11T00:28:43;0.80;69.40
8422;DHT22;4248;48.196;10.924;2022-12-11T00:31:13;0.80;68.50
8422;DHT22;4248;48.196;10.924;2022-12-11T00:33:39;0.80;69.50
8422;DHT22;4248;48.196;10.924;2022-12-11T00:36:11;0.90;69.40
8422;DHT22;4248;48.196;10.924;2022-12-11T00:38:37;0.90;69.10
8422;DHT22;4248;48.196;10.924;2022-12-11T00:41:03;0.90;68.00
8422;DHT22;4248;48.196;10.924;2022-12-11T00:43:28;0.90;69.10
8422;DHT22;4248;48.196;10.924;2022-12-11T00:45:54;1.00;69.40
8422;DHT22;4248;48.196;10.924;2022-12-11T00:48:20;0.90;69.30
8422;DHT22;4248;48.196;10.924;2022-12-11T00:50:46;0.90;68.20
8422;DHT22;4248;48.196;10.924;2022-12-11T00:53:11;0.90;69.40
8422;DHT22;4248;48.196;10.924;2022-12-11T00:55:38;0.90;69.60
8422;DHT22;4248;48.196;10.924;2022-12-11T00:58:04;0.90;69.60
8422;DHT22;4248;48.196;10.924;2022-12-11T01:00:30;0.90;68.80
8422;DHT22;4248;48.196;10.924;2022-12-11T01:02:56;0.80;70.00
8422;DHT22;4248;48.196;10.924;2022-12-11T01:05:21;0.70;70.00
8422;DHT22;4248;48.196;10.924;2022-12-11T01:07:47;0.70;69.90
8422;DHT22;4248;48.196;10.924;2022-12-11T01:10:13;0.70;68.90
8422;DHT22;4248;48.196;10.924;2022-12-11T01:13:02;0.60;70.00
8422;DHT22;4248;48.196;10.924;2022-12-11T01:15:34;0.60;69.90
8422;DHT22;4248;48.196;10.924;2022-12-11T01:18:02;0.50;69.80
8422;DHT22;4248;48.196;10.924;2022-12-11T01:20:28;0.40;68.70
8422;DHT22;4248;48.196;10.924;2022-12-11T01:22:56;0.30;69.60
8422;DHT22;4248;48.196;10.924;2022-12-11T01:25:22;0.30;69.60
8422;DHT22;4248;48.196;10.924;2022-12-11T01:27:52;0.30;69.60
8422;DHT22;4248;48.196;10.924;2022-12-11T01:30:18;0.30;68.60
8422;DHT22;4248;48.196;10.924;2022-12-11T01:32:44;0.30;69.60
8422;DHT22;4248;48.196;10.924;2022-12-11T01:35:11;0.20;69.50
8422;DHT22;4248;48.196;10.924;2022-12-11T01:37:37;0.20;69.50
8422;DHT22;4248;48.196;10.924;2022-12-11T01:40:04;0.30;68.60
8422;DHT22;4248;48.196;10.924;2022-12-11T01:42:30;0.30;69.60
8422;DHT22;4248;48.196;10.924;2022-12-11T01:47:51;0.40;69.70
8422;DHT22;4248;48.196;10.924;2022-12-11T01:50:16;0.40;68.50
8422;DHT22;4248;48.196;10.924;2022-12-11T01:52:43;0.40;69.40
8422;DHT22;4248;48.196;10.924;2022-12-11T01:55:11;0.40;69.20
8422;DHT22;4248;48.196;10.924;2022-12-11T01:57:39;0.40;69.20
8422;DHT22;4248;48.196;10.924;2022-12-11T02:00:06;0.40;68.20
8422;DHT22;4248;48.196;10.924;2022-12-11T02:02:32;0.40;69.40
8422;DHT22;4248;48.196;10.924;2022-12-11T02:05:03;0.50;69.20
8422;DHT22;4248;48.196;10.924;2022-12-11T02:07:35;0.50;68.90
8422;DHT22;4248;48.196;10.924;2022-12-11T02:10:02;0.50;67.80
8422;DHT22;4248;48.196;10.924;2022-12-11T02:12:42;0.50;69.00
8422;DHT22;4248;48.196;10.924;2022-12-11T02:15:21;0.50;69.00
8422;DHT22;4248;48.196;10.924;2022-12-11T02:20:25;0.50;68.00
8422;DHT22;4248;48.196;10.924;2022-12-11T02:23:03;0.60;69.10
8422;DHT22;4248;48.196;10.924;2022-12-11T02:31:50;0.40;68.70
8422;DHT22;4248;48.196;10.924;2022-12-11T02:34:37;0.30;69.60
8422;DHT22;4248;48.196;10.924;2022-12-11T02:37:08;0.20;69.50
8422;DHT22;4248;48.196;10.924;2022-12-11T02:39:38;0.10;68.40
8422;DHT22;4248;48.196;10.924;2022-12-11T02:42:05;0.10;69.40
8422;DHT22;4248;48.196;10.924;2022-12-11T02:44:33;0.00;69.30
8422;DHT22;4248;48.196;10.924;2022-12-11T02:47:00;0.00;69.40
8422;DHT22;4248;48.196;10.924;2022-12-11T02:49:29;-0.10;68.40
8422;DHT22;4248;48.196;10.924;2022-12-11T02:51:56;-0.10;69.60
8422;DHT22;4248;48.196;10.924;2022-12-11T02:54:30;-0.10;69.40
8422;DHT22;4248;48.196;10.924;2022-12-11T02:57:02;-0.10;69.40
8422;DHT22;4248;48.196;10.924;2022-12-11T02:59:34;-0.20;68.50
8422;DHT22;4248;48.196;10.924;2022-12-11T03:02:00;-0.20;69.40
8422;DHT22;4248;48.196;10.924;2022-12-11T03:04:27;-0.20;69.40
8422;DHT22;4248;48.196;10.924;2022-12-11T03:06:56;-0.10;70.00
8422;DHT22;4248;48.196;10.924;2022-12-11T03:09:24;-0.50;69.20
8422;DHT22;4248;48.196;10.924;2022-12-11T03:11:51;-0.50;70.40
8422;DHT22;4248;48.196;10.924;2022-12-11T03:14:17;-0.60;70.40
8422;DHT22;4248;48.196;10.924;2022-12-11T03:16:58;-0.60;71.70
8422;DHT22;4248;48.196;10.924;2022-12-11T03:19:47;-0.70;69.30
8422;DHT22;4248;48.196;10.924;2022-12-11T03:27:27;-0.40;69.20
8422;DHT22;4248;48.196;10.924;2022-12-11T03:30:18;-0.50;67.90
8422;DHT22;4248;48.196;10.924;2022-12-11T03:32:52;-0.60;69.20
8422;DHT22;4248;48.196;10.924;2022-12-11T03:35:27;-0.70;69.80
8422;DHT22;4248;48.196;10.924;2022-12-11T03:37:56;-0.90;70.00
8422;DHT22;4248;48.196;10.924;2022-12-11T03:40:25;-1.10;69.40
8422;DHT22;4248;48.196;10.924;2022-12-11T03:42:52;-1.20;70.60
8422;DHT22;4248;48.196;10.924;2022-12-11T03:45:21;-1.10;71.00
8422;DHT22;4248;48.196;10.924;2022-12-11T03:47:49;-1.30;70.90
8422;DHT22;4248;48.196;10.924;2022-12-11T03:50:17;-1.30;69.70
8422;DHT22;4248;48.196;10.924;2022-12-11T03:52:44;-1.20;70.50
8422;DHT22;4248;48.196;10.924;2022-12-11T03:55:12;-1.20;70.20
8422;DHT22;4248;48.196;10.924;2022-12-11T03:57:39;-1.10;69.90
8422;DHT22;4248;48.196;10.924;2022-12-11T04:00:10;-1.10;68.70
8422;DHT22;4248;48.196;10.924;2022-12-11T04:02:36;-1.00;69.60
8422;DHT22;4248;48.196;10.924;2022-12-11T04:05:02;-1.00;69.20
8422;DHT22;4248;48.196;10.924;2022-12-11T04:07:27;-0.90;68.60
8422;DHT22;4248;48.196;10.924;2022-12-11T04:09:53;-0.80;67.60
8422;DHT22;4248;48.196;10.924;2022-12-11T04:12:19;-0.80;68.70
8422;DHT22;4248;48.196;10.924;2022-12-11T04:14:45;-0.80;68.60
8422;DHT22;4248;48.196;10.924;2022-12-11T04:17:27;-0.70;68.70
8422;DHT22;4248;48.196;10.924;2022-12-11T04:20:11;-0.50;67.90
8422;DHT22;4248;48.196;10.924;2022-12-11T04:22:55;-0.40;69.10
8422;DHT22;4248;48.196;10.924;2022-12-11T04:25:39;-0.40;69.00
8422;DHT22;4248;48.196;10.924;2022-12-11T04:28:05;-0.40;67.60
8422;DHT22;4248;48.196;10.924;2022-12-11T04:30:30;-0.40;67.60
8422;DHT22;4248;48.196;10.924;2022-12-11T04:32:56;-0.40;68.50
8422;DHT22;4248;48.196;10.924;2022-12-11T04:35:22;-0.40;68.50
8422;DHT22;4248;48.196;10.924;2022-12-11T04:37:48;-0.40;68.60
8422;DHT22;4248;48.196;10.924;2022-12-11T04:40:15;-0.40;67.90
8422;DHT22;4248;48.196;10.924;2022-12-11T04:42:41;-0.40;69.00
8422;DHT22;4248;48.196;10.924;2022-12-11T04:45:09;-0.40;69.00
8422;DHT22;4248;48.196;10.924;2022-12-11T04:47:36;-0.40;69.00
8422;DHT22;4248;48.196;10.924;2022-12-11T04:50:04;-0.40;67.90
8422;DHT22;4248;48.196;10.924;2022-12-11T04:52:30;-0.40;69.00
8422;DHT22;4248;48.196;10.924;2022-12-11T04:54:56;-0.40;69.00
8422;DHT22;4248;48.196;10.924;2022-12-11T04:57:22;-0.30;69.20
8422;DHT22;4248;48.196;10.924;2022-12-11T04:59:47;-0.40;67.90
8422;DHT22;4248;48.196;10.924;2022-12-11T05:02:14;-0.30;69.00
8422;DHT22;4248;48.196;10.924;2022-12-11T05:04:40;-0.30;69.10
8422;DHT22;4248;48.196;10.924;2022-12-11T05:07:06;-0.30;68.80
8422;DHT22;4248;48.196;10.924;2022-12-11T05:09:34;-0.30;67.40
8422;DHT22;4248;48.196;10.924;2022-12-11T05:12:00;-0.30;68.40
8422;DHT22;4248;48.196;10.924;2022-12-11T05:14:25;-0.10;68.60
8422;DHT22;4248;48.196;10.924;2022-12-11T05:16:51;-0.10;68.80
8422;DHT22;4248;48.196;10.924;2022-12-11T05:19:17;0.40;67.00
8422;DHT22;4248;48.196;10.924;2022-12-11T05:21:43;0.40;68.10
8422;DHT22;4248;48.196;10.924;2022-12-11T05:24:08;0.70;67.90
8422;DHT22;4248;48.196;10.924;2022-12-11T05:26:34;0.90;67.60
8422;DHT22;4248;48.196;10.924;2022-12-11T05:29:00;0.80;66.50
8422;DHT22;4248;48.196;10.924;2022-12-11T05:31:26;0.70;67.50
8422;DHT22;4248;48.196;10.924;2022-12-11T05:33:52;0.50;68.10
8422;DHT22;4248;48.196;10.924;2022-12-11T05:36:19;0.40;68.80
8422;DHT22;4248;48.196;10.924;2022-12-11T05:38:45;0.20;69.20
8422;DHT22;4248;48.196;10.924;2022-12-11T05:41:14;0.10;68.40
8422;DHT22;4248;48.196;10.924;2022-12-11T05:43:40;0.10;69.40
8422;DHT22;4248;48.196;10.924;2022-12-11T05:46:12;0.10;69.40
8422;DHT22;4248;48.196;10.924;2022-12-11T05:48:39;0.00;69.30
8422;DHT22;4248;48.196;10.924;2022-12-11T05:51:05;-0.10;68.20
8422;DHT22;4248;48.196;10.924;2022-12-11T05:53:32;0.00;69.40
8422;DHT22;4248;48.196;10.924;2022-12-11T05:56:07;-0.10;69.30
8422;DHT22;4248;48.196;10.924;2022-12-11T05:58:33;0.00;69.40
8422;DHT22;4248;48.196;10.924;2022-12-11T06:01:00;-0.10;68.00
8422;DHT22;4248;48.196;10.924;2022-12-11T06:03:26;0.00;68.90
8422;DHT22;4248;48.196;10.924;2022-12-11T06:05:52;0.00;68.90
8422;DHT22;4248;48.196;10.924;2022-12-11T06:08:17;0.00;69.00
8422;DHT22;4248;48.196;10.924;2022-12-11T06:10:47;-0.10;67.70
8422;DHT22;4248;48.196;10.924;2022-12-11T06:13:13;-0.10;68.80
8422;DHT22;4248;48.196;10.924;2022-12-11T06:15:39;0.00;68.90
8422;DHT22;4248;48.196;10.924;2022-12-11T06:18:04;-0.30;69.10
8422;DHT22;4248;48.196;10.924;2022-12-11T06:20:31;-0.30;68.10
8422;DHT22;4248;48.196;10.924;2022-12-11T06:22:57;-0.40;69.10
8422;DHT22;4248;48.196;10.924;2022-12-11T06:25:23;-0.40;69.00
8422;DHT22;4248;48.196;10.924;2022-12-11T06:27:49;-0.40;69.00
8422;DHT22;4248;48.196;10.924;2022-12-11T06:30:15;-0.40;68.00
8422;DHT22;4248;48.196;10.924;2022-12-11T06:32:41;-0.40;69.00
8422;DHT22;4248;48.196;10.924;2022-12-11T06:35:07;-0.40;68.90
8422;DHT22;4248;48.196;10.924;2022-12-11T06:37:34;-0.30;67.50
8422;DHT22;4248;48.196;10.924;2022-12-11T06:40:01;-0.40;67.50
8422;DHT22;4248;48.196;10.924;2022-12-11T06:42:28;-0.40;68.50
8422;DHT22;4248;48.196;10.924;2022-12-11T06:44:54;-0.50;68.50
8422;DHT22;4248;48.196;10.924;2022-12-11T06:47:21;-0.50;68.80
8422;DHT22;4248;48.196;10.924;2022-12-11T06:49:47;-0.80;67.60
8422;DHT22;4248;48.196;10.924;2022-12-11T06:52:13;-0.90;68.70
8422;DHT22;4248;48.196;10.924;2022-12-11T06:54:38;-1.20;69.00
8422;DHT22;4248;48.196;10.924;2022-12-11T06:57:04;-1.30;69.70
8422;DHT22;4248;48.196;10.924;2022-12-11T06:59:29;-1.70;69.40
8422;DHT22;4248;48.196;10.924;2022-12-11T07:01:55;-1.80;70.50
8422;DHT22;4248;48.196;10.924;2022-12-11T07:04:21;-1.90;70.60
8422;DHT22;4248;48.196;10.924;2022-12-11T07:06:49;-2.00;70.90
8422;DHT22;4248;48.196;10.924;2022-12-11T07:09:14;-2.30;69.90
8422;DHT22;4248;48.196;10.924;2022-12-11T07:11:40;-2.30;71.10
8422;DHT22;4248;48.196;10.924;2022-12-11T07:14:06;-2.40;71.10
8422;DHT22;4248;48.196;10.924;2022-12-11T07:16:31;-2.50;71.10
8422;DHT22;4248;48.196;10.924;2022-12-11T07:18:57;-2.70;70.30
8422;DHT22;4248;48.196;10.924;2022-12-11T07:21:23;-2.70;71.20
8422;DHT22;4248;48.196;10.924;2022-12-11T07:23:49;-2.90;70.90
8422;DHT22;4248;48.196;10.924;2022-12-11T07:26:17;-3.00;71.10
8422;DHT22;4248;48.196;10.924;2022-12-11T07:28:43;-3.00;71.00
8422;DHT22;4248;48.196;10.924;2022-12-11T07:31:12;-3.10;69.70
8422;DHT22;4248;48.196;10.924;2022-12-11T07:33:38;-3.10;70.60
8422;DHT22;4248;48.196;10.924;2022-12-11T07:36:06;-3.10;70.50
8422;DHT22;4248;48.196;10.924;2022-12-11T07:38:32;-3.10;70.10
8422;DHT22;4248;48.196;10.924;2022-12-11T07:41:02;-3.10;68.90
8422;DHT22;4248;48.196;10.924;2022-12-11T07:43:28;-3.00;69.90
8422;DHT22;4248;48.196;10.924;2022-12-11T07:45:53;-3.00;69.70
8422;DHT22;4248;48.196;10.924;2022-12-11T07:48:19;-3.00;69.50
8422;DHT22;4248;48.196;10.924;2022-12-11T07:50:45;-3.10;68.30
8422;DHT22;4248;48.196;10.924;2022-12-11T07:53:10;-3.10;69.50
8422;DHT22;4248;48.196;10.924;2022-12-11T07:55:36;-3.10;69.80
8422;DHT22;4248;48.196;10.924;2022-12-11T07:58:04;-3.10;68.60
8422;DHT22;4248;48.196;10.924;2022-12-11T08:00:30;-3.00;68.20
8422;DHT22;4248;48.196;10.924;2022-12-11T08:02:56;-3.00;69.20
8422;DHT22;4248;48.196;10.924;2022-12-11T08:05:21;-2.90;69.00
8422;DHT22;4248;48.196;10.924;2022-12-11T08:07:47;-2.90;68.80
8422;DHT22;4248;48.196;10.924;2022-12-11T08:10:12;-2.80;67.60
8422;DHT22;4248;48.196;10.924;2022-12-11T08:12:38;-2.80;68.60
8422;DHT22;4248;48.196;10.924;2022-12-11T08:15:04;-2.80;68.30
8422;DHT22;4248;48.196;10.924;2022-12-11T08:17:30;-2.70;68.40
8422;DHT22;4248;48.196;10.924;2022-12-11T08:19:55;-2.70;67.50
8422;DHT22;4248;48.196;10.924;2022-12-11T08:22:21;-2.50;68.60
8422;DHT22;4248;48.196;10.924;2022-12-11T08:24:46;-2.50;68.30
8422;DHT22;4248;48.196;10.924;2022-12-11T08:27:12;-2.40;68.20
8422;DHT22;4248;48.196;10.924;2022-12-11T08:29:38;-2.30;66.40
8422;DHT22;4248;48.196;10.924;2022-12-11T08:32:03;-2.20;68.70
8422;DHT22;4248;48.196;10.924;2022-12-11T08:34:29;-2.10;67.60
8422;DHT22;4248;48.196;10.924;2022-12-11T08:36:54;-1.90;67.80
8422;DHT22;4248;48.196;10.924;2022-12-11T08:39:20;-1.70;66.90
8422;DHT22;4248;48.196;10.924;2022-12-11T08:41:46;-1.60;68.00
8422;DHT22;4248;48.196;10.924;2022-12-11T08:44:11;-2.30;67.40
8422;DHT22;4248;48.196;10.924;2022-12-11T08:46:37;-1.60;68.00
8422;DHT22;4248;48.196;10.924;2022-12-11T08:49:03;-1.50;67.10
8422;DHT22;4248;48.196;10.924;2022-12-11T08:51:29;-1.50;69.20
8422;DHT22;4248;48.196;10.924;2022-12-11T08:53:59;-1.40;68.10
8422;DHT22;4248;48.196;10.924;2022-12-11T08:56:25;-1.40;68.20
8422;DHT22;4248;48.196;10.924;2022-12-11T08:58:52;-1.20;67.30
8422;DHT22;4248;48.196;10.924;2022-12-11T09:01:21;-1.20;67.90
8422;DHT22;4248;48.196;10.924;2022-12-11T09:03:48;-1.10;67.80
8422;DHT22;4248;48.196;10.924;2022-12-11T09:06:17;-1.10;67.70
8422;DHT22;4248;48.196;10.924;2022-12-11T09:08:45;-1.00;67.80
8422;DHT22;4248;48.196;10.924;2022-12-11T09:11:14;-1.00;66.90
8422;DHT22;4248;48.196;10.924;2022-12-11T09:13:40;-0.90;68.00
8422;DHT22;4248;48.196;10.924;2022-12-11T09:16:09;-0.90;67.70
8422;DHT22;4248;48.196;10.924;2022-12-11T09:18:36;-0.70;67.50
8422;DHT22;4248;48.196;10.924;2022-12-11T09:21:04;-0.60;66.30
8422;DHT22;4248;48.196;10.924;2022-12-11T09:23:32;-0.60;66.90
8422;DHT22;4248;48.196;10.924;2022-12-11T09:25:58;-0.40;67.00
8422;DHT22;4248;48.196;10.924;2022-12-11T09:28:25;-0.30;66.80
8422;DHT22;4248;48.196;10.924;2022-12-11T09:30:50;-0.20;65.40
8422;DHT22;4248;48.196;10.924;2022-12-11T09:33:16;-0.20;67.60
8422;DHT22;4248;48.196;10.924;2022-12-11T09:35:42;-0.10;66.50
8422;DHT22;4248;48.196;10.924;2022-12-11T09:38:08;0.00;65.30
8422;DHT22;4248;48.196;10.924;2022-12-11T09:40:41;0.10;65.20
8422;DHT22;4248;48.196;10.924;2022-12-11T09:43:21;0.10;66.20
8422;DHT22;4248;48.196;10.924;2022-12-11T09:45:53;0.30;66.20
8422;DHT22;4248;48.196;10.924;2022-12-11T09:48:23;0.40;65.90
8422;DHT22;4248;48.196;10.924;2022-12-11T09:50:52;0.40;64.80
8422;DHT22;4248;48.196;10.924;2022-12-11T09:53:25;0.40;66.00
8422;DHT22;4248;48.196;10.924;2022-12-11T09:56:06;0.40;66.00
8422;DHT22;4248;48.196;10.924;2022-12-11T10:02:16;0.30;65.30
8422;DHT22;4248;48.196;10.924;2022-12-11T10:15:11;0.40;65.90
8422;DHT22;4248;48.196;10.924;2022-12-11T10:17:39;0.40;65.80
8422;DHT22;4248;48.196;10.924;2022-12-11T10:20:22;0.50;64.50
8422;DHT22;4248;48.196;10.924;2022-12-11T10:22:49;0.60;65.60
8422;DHT22;4248;48.196;10.924;2022-12-11T10:25:28;0.50;65.30
8422;DHT22;4248;48.196;10.924;2022-12-11T10:27:54;0.50;65.50
8422;DHT22;4248;48.196;10.924;2022-12-11T10:30:32;0.60;64.40
8422;DHT22;4248;48.196;10.924;2022-12-11T10:33:16;0.60;65.60
8422;DHT22;4248;48.196;10.924;2022-12-11T10:35:48;0.60;65.40
8422;DHT22;4248;48.196;10.924;2022-12-11T10:40:48;0.50;64.20
8422;DHT22;4248;48.196;10.924;2022-12-11T10:43:14;0.50;65.10
8422;DHT22;4248;48.196;10.924;2022-12-11T10:45:52;0.60;64.10
8422;DHT22;4248;48.196;10.924;2022-12-11T10:48:19;0.60;63.30
8422;DHT22;4248;48.196;10.924;2022-12-11T10:51:04;0.60;61.00
8422;DHT22;4248;48.196;10.924;2022-12-11T10:53:31;0.60;61.60
8422;DHT22;4248;48.196;10.924;2022-12-11T10:55:59;0.80;61.10
8422;DHT22;4248;48.196;10.924;2022-12-11T10:58:27;0.70;59.90
8422;DHT22;4248;48.196;10.924;2022-12-11T11:01:04;0.70;57.90
8422;DHT22;4248;48.196;10.924;2022-12-11T11:03:31;0.80;57.90
8422;DHT22;4248;48.196;10.924;2022-12-11T11:06:17;0.90;57.70
8422;DHT22;4248;48.196;10.924;2022-12-11T11:08:46;1.20;57.70
8422;DHT22;4248;48.196;10.924;2022-12-11T11:11:28;1.40;55.60
8422;DHT22;4248;48.196;10.924;2022-12-11T11:14:15;1.40;56.00
8422;DHT22;4248;48.196;10.924;2022-12-11T11:16:43;1.30;55.30
8422;DHT22;4248;48.196;10.924;2022-12-11T11:19:48;1.30;54.50
8422;DHT22;4248;48.196;10.924;2022-12-11T11:22:16;1.30;55.90
8422;DHT22;4248;48.196;10.924;2022-12-11T11:24:52;1.20;56.50
8422;DHT22;4248;48.196;10.924;2022-12-11T11:27:34;1.10;57.10
8422;DHT22;4248;48.196;10.924;2022-12-11T11:30:52;1.10;55.80
8422;DHT22;4248;48.196;10.924;2022-12-11T11:32:53;1.10;57.20
8422;DHT22;4248;48.196;10.924;2022-12-11T11:35:25;1.10;57.80
8422;DHT22;4248;48.196;10.924;2022-12-11T11:38:15;1.70;55.80
8422;DHT22;4248;48.196;10.924;2022-12-11T11:46:26;2.20;56.10
8422;DHT22;4248;48.196;10.924;2022-12-11T11:49:06;2.70;54.80
8422;DHT22;4248;48.196;10.924;2022-12-11T11:51:40;2.70;55.70
8422;DHT22;4248;48.196;10.924;2022-12-11T11:54:23;2.70;55.00
8422;DHT22;4248;48.196;10.924;2022-12-11T11:56:53;2.70;55.30
8422;DHT22;4248;48.196;10.924;2022-12-11T11:59:29;2.60;55.70
8422;DHT22;4248;48.196;10.924;2022-12-11T12:01:57;2.40;55.90
8422;DHT22;4248;48.196;10.924;2022-12-11T12:04:24;2.30;55.80
8422;DHT22;4248;48.196;10.924;2022-12-11T12:18:20;0.90;55.40
8422;DHT22;4248;48.196;10.924;2022-12-11T12:24:01;0.90;56.20
8422;DHT22;4248;48.196;10.924;2022-12-11T12:26:35;1.20;55.80
8422;DHT22;4248;48.196;10.924;2022-12-11T12:29:41;1.70;54.00
8422;DHT22;4248;48.196;10.924;2022-12-11T12:32:14;1.70;54.70
8422;DHT22;4248;48.196;10.924;2022-12-11T12:34:47;1.90;54.70
8422;DHT22;4248;48.196;10.924;2022-12-11T12:40:31;1.80;54.30
8422;DHT22;4248;48.196;10.924;2022-12-11T12:45:58;1.50;53.80
8422;DHT22;4248;48.196;10.924;2022-12-11T12:48:27;1.50;54.20
8422;DHT22;4248;48.196;10.924;2022-12-11T12:50:54;1.60;53.30
8422;DHT22;4248;48.196;10.924;2022-12-11T12:53:23;1.70;54.40
8422;DHT22;4248;48.196;10.924;2022-12-11T12:55:50;2.00;54.30
8422;DHT22;4248;48.196;10.924;2022-12-11T12:58:42;2.30;54.00
8422;DHT22;4248;48.196;10.924;2022-12-11T13:01:18;2.40;52.30
8422;DHT22;4248;48.196;10.924;2022-12-11T13:06:42;2.50;52.30
8422;DHT22;4248;48.196;10.924;2022-12-11T13:09:24;2.80;52.40
8422;DHT22;4248;48.196;10.924;2022-12-11T13:11:55;2.80;53.20
8422;DHT22;4248;48.196;10.924;2022-12-11T13:14:30;2.90;53.00
8422;DHT22;4248;48.196;10.924;2022-12-11T13:17:23;3.00;53.10
8422;DHT22;4248;48.196;10.924;2022-12-11T13:20:04;3.20;52.80
8422;DHT22;4248;48.196;10.924;2022-12-11T13:22:33;3.30;54.00
8422;DHT22;4248;48.196;10.924;2022-12-11T13:25:02;3.20;52.80
8422;DHT22;4248;48.196;10.924;2022-12-11T13:27:41;3.20;53.10
8422;DHT22;4248;48.196;10.924;2022-12-11T13:30:20;3.20;52.30
8422;DHT22;4248;48.196;10.924;2022-12-11T13:35:25;3.30;53.30
8422;DHT22;4248;48.196;10.924;2022-12-11T13:37:51;3.00;52.90
8422;DHT22;4248;48.196;10.924;2022-12-11T13:40:25;3.10;52.20
8422;DHT22;4248;48.196;10.924;2022-12-11T13:42:55;3.10;53.30
8422;DHT22;4248;48.196;10.924;2022-12-11T13:45:31;3.10;53.20
8422;DHT22;4248;48.196;10.924;2022-12-11T13:47:59;2.80;52.80
8422;DHT22;4248;48.196;10.924;2022-12-11T13:50:29;2.50;52.50
8422;DHT22;4248;48.196;10.924;2022-12-11T13:52:58;2.50;53.80
8422;DHT22;4248;48.196;10.924;2022-12-11T13:55:26;2.50;53.60
8422;DHT22;4248;48.196;10.924;2022-12-11T13:57:52;2.50;53.80
8422;DHT22;4248;48.196;10.924;2022-12-11T14:00:25;2.40;53.00
8422;DHT22;4248;48.196;10.924;2022-12-11T14:02:52;2.40;54.10
8422;DHT22;4248;48.196;10.924;2022-12-11T14:05:18;2.30;54.20
8422;DHT22;4248;48.196;10.924;2022-12-11T14:07:50;2.30;55.40
8422;DHT22;4248;48.196;10.924;2022-12-11T14:10:23;2.30;52.90
8422;DHT22;4248;48.196;10.924;2022-12-11T14:15:14;2.30;53.90
8422;DHT22;4248;48.196;10.924;2022-12-11T14:17:42;2.10;54.20
8422;DHT22;4248;48.196;10.924;2022-12-11T14:20:32;1.90;53.40
8422;DHT22;4248;48.196;10.924;2022-12-11T14:23:16;1.90;54.40
8422;DHT22;4248;48.196;10.924;2022-12-11T14:25:54;2.00;54.40
8422;DHT22;4248;48.196;10.924;2022-12-11T14:28:22;1.80;54.30
8422;DHT22;4248;48.196;10.924;2022-12-11T14:30:54;1.60;53.60
8422;DHT22;4248;48.196;10.924;2022-12-11T14:33:23;1.50;55.10
8422;DHT22;4248;48.196;10.924;2022-12-11T14:35:51;1.50;55.10
8422;DHT22;4248;48.196;10.924;2022-12-11T14:38:26;1.50;55.00
8422;DHT22;4248;48.196;10.924;2022-12-11T14:41:04;1.40;53.90
8422;DHT22;4248;48.196;10.924;2022-12-11T14:43:42;1.30;55.10
8422;DHT22;4248;48.196;10.924;2022-12-11T14:46:22;1.30;55.20
8422;DHT22;4248;48.196;10.924;2022-12-11T14:48:56;1.20;55.30
8422;DHT22;4248;48.196;10.924;2022-12-11T14:51:25;1.00;54.60
8422;DHT22;4248;48.196;10.924;2022-12-11T14:53:53;1.00;55.60
8422;DHT22;4248;48.196;10.924;2022-12-11T14:56:23;1.00;55.80
8422;DHT22;4248;48.196;10.924;2022-12-11T14:59:06;0.80;55.70
8422;DHT22;4248;48.196;10.924;2022-12-11T15:01:44;0.60;56.10
8422;DHT22;4248;48.196;10.924;2022-12-11T15:06:47;0.40;56.30
8422;DHT22;4248;48.196;10.924;2022-12-11T15:09:20;0.00;55.80
8422;DHT22;4248;48.196;10.924;2022-12-11T15:11:50;0.00;55.80
8422;DHT22;4248;48.196;10.924;2022-12-11T15:14:18;-0.20;56.80
8422;DHT22;4248;48.196;10.924;2022-12-11T15:16:46;-0.30;57.40
8422;DHT22;4248;48.196;10.924;2022-12-11T15:19:31;-0.50;56.80
8422;DHT22;4248;48.196;10.924;2022-12-11T15:22:03;-0.60;57.70
8422;DHT22;4248;48.196;10.924;2022-12-11T15:24:42;-0.70;57.90
8422;DHT22;4248;48.196;10.924;2022-12-11T15:29:51;-1.00;57.20
8422;DHT22;4248;48.196;10.924;2022-12-11T15:32:18;-0.90;58.50
8422;DHT22;4248;48.196;10.924;2022-12-11T15:34:55;-1.10;58.30
8422;DHT22;4248;48.196;10.924;2022-12-11T15:37:33;-1.20;58.20
8422;DHT22;4248;48.196;10.924;2022-12-11T15:40:02;-1.20;57.10
8422;DHT22;4248;48.196;10.924;2022-12-11T15:42:37;-1.30;58.00
8422;DHT22;4248;48.196;10.924;2022-12-11T15:45:06;-1.30;58.10
8422;DHT22;4248;48.196;10.924;2022-12-11T15:47:32;-1.40;58.10
8422;DHT22;4248;48.196;10.924;2022-12-11T15:50:00;-1.50;57.20
8422;DHT22;4248;48.196;10.924;2022-12-11T15:52:26;-1.50;58.30
8422;DHT22;4248;48.196;10.924;2022-12-11T15:54:52;-1.60;58.20
8422;DHT22;4248;48.196;10.924;2022-12-11T15:57:21;-1.60;57.20
8422;DHT22;4248;48.196;10.924;2022-12-11T15:59:50;-1.50;56.90
8422;DHT22;4248;48.196;10.924;2022-12-11T16:02:17;-1.50;58.00
8422;DHT22;4248;48.196;10.924;2022-12-11T16:04:42;-1.50;57.00
8422;DHT22;4248;48.196;10.924;2022-12-11T16:07:22;-1.50;57.80
8422;DHT22;4248;48.196;10.924;2022-12-11T16:09:49;-1.40;56.50
8422;DHT22;4248;48.196;10.924;2022-12-11T16:12:15;-1.30;56.30
8422;DHT22;4248;48.196;10.924;2022-12-11T16:14:42;-1.20;57.40
8422;DHT22;4248;48.196;10.924;2022-12-11T16:17:08;-1.30;57.10
8422;DHT22;4248;48.196;10.924;2022-12-11T16:19:35;-1.20;55.50
8422;DHT22;4248;48.196;10.924;2022-12-11T16:22:01;-1.10;56.70
8422;DHT22;4248;48.196;10.924;2022-12-11T16:24:27;-1.10;56.60
8422;DHT22;4248;48.196;10.924;2022-12-11T16:26:53;-1.00;56.60
8422;DHT22;4248;48.196;10.924;2022-12-11T16:29:19;-1.00;56.50
8422;DHT22;4248;48.196;10.924;2022-12-11T16:31:44;-0.90;56.20
8422;DHT22;4248;48.196;10.924;2022-12-11T16:34:10;-0.90;56.10
8422;DHT22;4248;48.196;10.924;2022-12-11T16:36:36;-0.80;56.20
8422;DHT22;4248;48.196;10.924;2022-12-11T16:39:02;-0.70;55.30
8422;DHT22;4248;48.196;10.924;2022-12-11T16:41:28;-0.70;55.20
8422;DHT22;4248;48.196;10.924;2022-12-11T16:43:53;-0.60;56.40
8422;DHT22;4248;48.196;10.924;2022-12-11T16:46:21;-0.60;56.30
8422;DHT22;4248;48.196;10.924;2022-12-11T16:48:47;-0.50;56.40
8422;DHT22;4248;48.196;10.924;2022-12-11T16:51:13;-0.50;55.30
8422;DHT22;4248;48.196;10.924;2022-12-11T16:53:38;-0.40;56.30
8422;DHT22;4248;48.196;10.924;2022-12-11T16:56:05;-0.40;56.10
8422;DHT22;4248;48.196;10.924;2022-12-11T16:58:31;-0.40;56.00
8422;DHT22;4248;48.196;10.924;2022-12-11T17:00:56;-0.50;55.10
8422;DHT22;4248;48.196;10.924;2022-12-11T17:03:30;-0.40;56.20
8422;DHT22;4248;48.196;10.924;2022-12-11T17:05:56;-0.50;56.20
8422;DHT22;4248;48.196;10.924;2022-12-11T17:08:23;-0.40;56.60
8422;DHT22;4248;48.196;10.924;2022-12-11T17:10:49;-0.50;55.40
8422;DHT22;4248;48.196;10.924;2022-12-11T17:13:15;-0.40;56.60
8422;DHT22;4248;48.196;10.924;2022-12-11T17:15:42;-0.40;56.60
8422;DHT22;4248;48.196;10.924;2022-12-11T17:18:08;-0.40;56.60
8422;DHT22;4248;48.196;10.924;2022-12-11T17:20:38;-0.40;55.50
8422;DHT22;4248;48.196;10.924;2022-12-11T17:23:03;-0.40;56.60